createdAt,value
2022-12-28T00:01:52.456Z,81.64
2022-12-28T00:04:19.816Z,82.05
2022-12-28T00:06:47.781Z,82.12
2022-12-28T00:09:15.137Z,81.93
2022-12-28T00:11:42.848Z,81.76
2022-12-28T00:14:10.215Z,81.88
2022-12-28T00:16:41.966Z,81.26
2022-12-28T00:19:16.709Z,81.50
2022-12-28T00:21:46.044Z,81.46
2022-12-28T00:24:21.052Z,81.39
2022-12-28T00:26:49.401Z,81.06
2022-12-28T00:29:17.251Z,81.04
2022-12-28T00:31:46.385Z,80.81
2022-12-28T00:34:14.447Z,80.80
2022-12-28T00:37:11.092Z,80.90
2022-12-28T00:39:30.185Z,80.80
2022-12-28T00:41:59.269Z,81.28
2022-12-28T00:44:26.663Z,81.17
2022-12-28T00:46:54.293Z,81.30
2022-12-28T00:49:21.660Z,81.05
2022-12-28T00:51:49.236Z,81.86
2022-12-28T00:54:16.525Z,82.02
2022-12-28T00:56:44.109Z,82.39
2022-12-28T00:59:11.942Z,82.86
2022-12-28T01:01:39.931Z,83.13
2022-12-28T01:04:07.627Z,83.62
2022-12-28T01:06:35.275Z,83.62
2022-12-28T01:09:02.762Z,83.65
2022-12-28T01:11:31.537Z,83.71
2022-12-28T01:14:02.856Z,84.29
2022-12-28T01:16:36.934Z,83.93
2022-12-28T01:19:08.164Z,84.33
2022-12-28T01:21:37.347Z,84.99
2022-12-28T01:24:08.087Z,84.92
2022-12-28T01:26:36.861Z,85.57
2022-12-28T01:29:04.554Z,85.27
2022-12-28T01:31:32.982Z,85.49
2022-12-28T01:34:00.975Z,85.84
2022-12-28T01:36:32.980Z,86.29
2022-12-28T01:39:04.708Z,86.56
2022-12-28T01:41:38.526Z,86.97
2022-12-28T01:44:07.182Z,86.67
2022-12-28T01:46:43.099Z,86.74
2022-12-28T01:49:18.644Z,86.51
2022-12-28T01:52:13.973Z,87.04
2022-12-28T01:54:56.221Z,87.08
2022-12-28T01:57:30.245Z,87.37
2022-12-28T02:00:14.603Z,87.86
2022-12-28T02:03:04.606Z,88.16
2022-12-28T02:05:39.883Z,87.66
2022-12-28T02:08:36.081Z,88.40
2022-12-28T02:11:05.289Z,88.23
2022-12-28T02:13:34.535Z,88.35
2022-12-28T02:16:01.833Z,88.87
2022-12-28T02:18:29.492Z,88.74
2022-12-28T02:21:54.738Z,88.99
2022-12-28T02:25:12.927Z,89.02
2022-12-28T02:28:13.871Z,88.83
2022-12-28T02:30:57.176Z,89.33
2022-12-28T02:33:36.812Z,89.36
2022-12-28T02:36:18.817Z,89.38
2022-12-28T02:38:58.620Z,89.44
2022-12-28T02:41:26.921Z,89.62
2022-12-28T02:43:55.497Z,89.84
2022-12-28T02:46:52.296Z,89.71
2022-12-28T02:49:42.048Z,90.16
2022-12-28T02:52:28.215Z,89.78
2022-12-28T02:55:35.244Z,90.00
2022-12-28T02:58:27.530Z,90.20
2022-12-28T03:01:37.638Z,90.31
2022-12-28T03:04:32.902Z,90.39
2022-12-28T03:07:33.718Z,90.56
2022-12-28T03:10:16.117Z,90.31
2022-12-28T03:13:05.209Z,90.61
2022-12-28T03:15:38.796Z,90.06
2022-12-28T03:18:34.989Z,90.11
2022-12-28T03:21:29.264Z,90.15
2022-12-28T03:24:16.689Z,90.23
2022-12-28T03:27:10.484Z,89.47
2022-12-28T03:30:05.737Z,89.52
2022-12-28T03:32:34.628Z,89.36
2022-12-28T03:35:02.545Z,88.93
2022-12-28T03:37:47.339Z,88.98
2022-12-28T03:40:48.472Z,88.83
2022-12-28T03:43:41.289Z,88.78
2022-12-28T03:46:35.400Z,88.78
2022-12-28T03:49:03.797Z,88.48
2022-12-28T03:51:34.578Z,88.28
2022-12-28T03:54:02.142Z,88.71
2022-12-28T03:56:29.591Z,88.70
2022-12-28T03:58:57.754Z,88.58
2022-12-28T04:01:25.339Z,87.85
2022-12-28T04:03:52.959Z,88.07
2022-12-28T04:06:21.016Z,87.89
2022-12-28T04:08:48.812Z,87.91
2022-12-28T04:11:16.371Z,87.76
2022-12-28T04:13:44.481Z,87.44
2022-12-28T04:16:14.971Z,87.62
2022-12-28T04:18:43.260Z,87.27
2022-12-28T04:21:13.101Z,87.20
2022-12-28T04:23:41.101Z,87.75
2022-12-28T04:26:12.391Z,87.27
2022-12-28T04:28:41.176Z,87.25
2022-12-28T04:31:14.051Z,87.20
2022-12-28T04:33:42.168Z,87.06
2022-12-28T04:36:14.727Z,86.93
2022-12-28T04:38:42.840Z,87.03
2022-12-28T04:41:12.701Z,87.01
2022-12-28T04:43:40.565Z,86.54
2022-12-28T04:46:15.359Z,86.60
2022-12-28T04:48:43.759Z,86.29
2022-12-28T04:51:26.890Z,86.20
2022-12-28T04:53:56.716Z,85.77
2022-12-28T04:56:26.443Z,85.71
2022-12-28T04:59:00.187Z,85.39
2022-12-28T05:01:28.001Z,85.41
2022-12-28T05:03:59.683Z,85.47
2022-12-28T05:06:28.243Z,85.21
2022-12-28T05:08:57.653Z,85.10
2022-12-28T05:11:29.162Z,85.37
2022-12-28T05:13:57.317Z,85.47
2022-12-28T05:16:28.769Z,85.40
2022-12-28T05:18:57.865Z,85.51
2022-12-28T05:21:28.698Z,85.83
2022-12-28T05:23:57.493Z,85.67
2022-12-28T05:26:29.182Z,85.48
2022-12-28T05:28:58.805Z,85.29
2022-12-28T05:31:27.049Z,85.04
2022-12-28T05:33:55.240Z,85.03
2022-12-28T05:36:26.090Z,84.84
2022-12-28T05:38:55.784Z,85.16
2022-12-28T05:41:29.207Z,84.92
2022-12-28T05:43:59.455Z,85.35
2022-12-28T05:46:33.373Z,85.03
2022-12-28T05:49:02.160Z,85.06
2022-12-28T05:51:32.392Z,85.31
2022-12-28T05:54:04.596Z,85.56
2022-12-28T05:56:33.475Z,84.82
2022-12-28T05:59:05.697Z,84.55
2022-12-28T06:01:37.450Z,85.34
2022-12-28T06:04:14.387Z,85.40
2022-12-28T06:06:41.739Z,85.08
2022-12-28T06:09:09.326Z,84.82
2022-12-28T06:11:36.876Z,85.02
2022-12-28T06:14:06.078Z,85.53
2022-12-28T06:16:40.232Z,85.48
2022-12-28T06:19:11.951Z,85.31
2022-12-28T06:21:41.305Z,85.40
2022-12-28T06:24:11.410Z,85.17
2022-12-28T06:26:41.093Z,84.88
2022-12-28T06:29:08.974Z,85.06
2022-12-28T06:31:40.277Z,85.59
2022-12-28T06:34:10.261Z,85.33
2022-12-28T06:36:44.318Z,84.83
2022-12-28T06:39:14.620Z,85.10
2022-12-28T06:41:42.683Z,84.99
2022-12-28T06:44:13.767Z,85.63
2022-12-28T06:46:41.402Z,85.65
2022-12-28T06:49:09.371Z,85.51
2022-12-28T06:51:40.825Z,85.09
2022-12-28T06:54:10.479Z,85.35
2022-12-28T06:56:38.502Z,85.35
2022-12-28T06:59:06.982Z,85.00
2022-12-28T07:01:39.748Z,84.78
2022-12-28T07:04:10.356Z,84.50
2022-12-28T07:06:44.171Z,84.21
2022-12-28T07:09:15.341Z,84.43
2022-12-28T07:11:44.576Z,83.45
2022-12-28T07:14:12.451Z,83.60
2022-12-28T07:19:06.192Z,83.73
2022-12-28T07:21:37.666Z,83.21
2022-12-28T07:24:06.733Z,83.36
2022-12-28T07:26:36.907Z,83.71
2022-12-28T07:29:07.229Z,83.75
2022-12-28T07:31:45.348Z,83.83
2022-12-28T07:34:16.583Z,83.86
2022-12-28T07:36:44.054Z,83.41
2022-12-28T07:39:11.815Z,82.94
2022-12-28T07:41:39.306Z,82.89
2022-12-28T07:44:07.018Z,82.26
2022-12-28T07:46:37.446Z,81.79
2022-12-28T07:49:06.253Z,81.79
2022-12-28T07:51:37.449Z,80.90
2022-12-28T07:54:06.107Z,80.55
2022-12-28T07:59:05.013Z,79.79
2022-12-28T08:01:35.560Z,79.54
2022-12-28T08:04:12.124Z,79.13
2022-12-28T08:06:42.314Z,78.64
2022-12-28T08:09:13.355Z,77.59
2022-12-28T08:11:45.910Z,76.84
2022-12-28T08:14:13.738Z,76.90
2022-12-28T08:16:44.135Z,76.61
2022-12-28T08:19:13.712Z,76.72
2022-12-28T08:21:45.667Z,76.01
2022-12-28T08:24:19.832Z,75.84
2022-12-28T08:26:49.183Z,74.81
2022-12-28T08:29:21.336Z,74.21
2022-12-28T08:31:49.960Z,72.80
2022-12-28T08:34:26.523Z,71.83
2022-12-28T08:36:56.937Z,71.03
2022-12-28T08:39:24.598Z,69.59
2022-12-28T08:41:51.859Z,68.32
2022-12-28T08:44:19.563Z,66.89
2022-12-28T08:46:47.231Z,65.61
2022-12-28T08:49:15.059Z,64.02
2022-12-28T08:51:42.690Z,64.03
2022-12-28T08:54:14.069Z,63.09
2022-12-28T08:56:44.280Z,63.72
2022-12-28T08:59:18.798Z,63.47
2022-12-28T09:01:47.185Z,62.92
2022-12-28T09:04:22.825Z,62.28
2022-12-28T09:06:50.728Z,62.54
2022-12-28T09:09:19.972Z,63.08
2022-12-28T09:11:48.722Z,63.94
2022-12-28T09:14:23.203Z,64.35
2022-12-28T09:16:55.220Z,65.11
2022-12-28T09:19:23.257Z,65.18
2022-12-28T09:21:53.436Z,65.60
2022-12-28T09:24:22.764Z,66.52
2022-12-28T09:26:52.922Z,66.86
2022-12-28T09:29:21.024Z,67.44
2022-12-28T09:31:48.304Z,67.45
2022-12-28T09:37:03.898Z,68.27
2022-12-28T09:39:31.883Z,68.51
2022-12-28T09:42:17.694Z,69.26
2022-12-28T09:45:08.905Z,69.13
2022-12-28T09:47:52.028Z,69.15
2022-12-28T09:50:19.772Z,68.47
2022-12-28T09:53:06.031Z,68.00
2022-12-28T09:55:38.212Z,67.33
2022-12-28T09:58:14.392Z,67.59
2022-12-28T10:00:59.553Z,66.84
2022-12-28T10:03:41.038Z,67.97
2022-12-28T10:06:21.033Z,68.08
2022-12-28T10:09:01.369Z,68.27
2022-12-28T10:11:39.286Z,68.30
2022-12-28T10:14:27.834Z,68.58
2022-12-28T10:16:55.570Z,68.80
2022-12-28T10:19:27.909Z,68.37
2022-12-28T10:22:08.722Z,67.97
2022-12-28T10:24:37.340Z,68.23
2022-12-28T10:27:12.704Z,67.87
2022-12-28T10:29:44.687Z,66.94
2022-12-28T10:32:12.865Z,66.55
2022-12-28T10:34:59.225Z,66.65
2022-12-28T10:37:36.270Z,66.32
2022-12-28T10:40:25.852Z,65.08
2022-12-28T10:42:56.454Z,64.37
2022-12-28T10:45:34.193Z,62.43
2022-12-28T10:48:14.958Z,61.65
2022-12-28T10:50:58.335Z,60.53
2022-12-28T10:53:33.740Z,59.65
2022-12-28T10:56:17.504Z,59.12
2022-12-28T10:58:48.662Z,59.91
2022-12-28T11:01:19.551Z,60.17
2022-12-28T11:03:56.202Z,60.50
2022-12-28T11:06:50.821Z,57.61
2022-12-28T11:09:29.974Z,55.73
2022-12-28T11:12:18.823Z,54.56
2022-12-28T11:14:46.411Z,55.42
2022-12-28T11:17:19.718Z,52.57
2022-12-28T11:19:52.219Z,51.50
2022-12-28T11:22:29.997Z,50.61
2022-12-28T11:25:01.856Z,43.31
2022-12-28T11:27:29.395Z,41.92
2022-12-28T11:29:57.996Z,38.83
2022-12-28T11:32:42.823Z,37.72
2022-12-28T11:35:23.269Z,35.40
2022-12-28T11:38:03.655Z,34.64
2022-12-28T11:40:50.759Z,33.05
2022-12-28T11:43:29.885Z,31.06
2022-12-28T11:46:03.305Z,29.53
2022-12-28T11:48:42.545Z,28.38
2022-12-28T11:51:25.875Z,28.72
2022-12-28T11:54:23.845Z,31.53
2022-12-28T11:56:51.326Z,31.37
2022-12-28T11:59:34.794Z,29.33
2022-12-28T12:02:06.313Z,27.68
2022-12-28T12:04:41.256Z,27.85
2022-12-28T12:07:19.855Z,27.27
2022-12-28T12:10:09.758Z,26.68
2022-12-28T12:12:48.061Z,27.03
2022-12-28T12:15:40.290Z,28.64
2022-12-28T12:18:19.615Z,27.06
2022-12-28T12:21:13.546Z,28.76
2022-12-28T12:23:52.196Z,31.91
2022-12-28T12:26:45.159Z,35.42
2022-12-28T12:29:40.325Z,38.46
2022-12-28T12:32:44.709Z,40.39
2022-12-28T12:35:20.959Z,42.41
2022-12-28T12:38:40.940Z,44.01
2022-12-28T12:41:17.598Z,44.65
2022-12-28T12:44:15.965Z,46.18
2022-12-28T12:47:07.628Z,47.04
2022-12-28T12:50:00.970Z,47.24
2022-12-28T12:52:42.369Z,47.50
2022-12-28T12:55:46.363Z,48.49
2022-12-28T12:58:28.083Z,48.58
2022-12-28T13:01:39.582Z,48.74
2022-12-28T13:04:18.310Z,49.20
2022-12-28T13:06:46.022Z,49.61
2022-12-28T13:09:19.933Z,49.91
2022-12-28T13:11:47.651Z,50.45
2022-12-28T13:14:22.144Z,49.11
2022-12-28T13:16:55.700Z,42.24
2022-12-28T13:19:26.897Z,37.17
2022-12-28T13:21:55.217Z,34.04
2022-12-28T13:24:29.825Z,31.59
2022-12-28T13:27:00.168Z,30.65
2022-12-28T13:29:35.999Z,29.94
2022-12-28T13:32:03.432Z,30.42
2022-12-28T13:34:36.148Z,29.60
2022-12-28T13:37:21.343Z,29.50
2022-12-28T13:39:49.763Z,29.53
2022-12-28T13:42:39.523Z,30.10
2022-12-28T13:45:15.347Z,30.71
2022-12-28T13:47:50.193Z,33.86
2022-12-28T13:50:20.505Z,36.94
2022-12-28T13:53:08.195Z,39.32
2022-12-28T13:55:51.095Z,42.32
2022-12-28T13:58:29.832Z,43.21
2022-12-28T14:01:02.216Z,43.61
2022-12-28T14:03:37.515Z,41.25
2022-12-28T14:06:10.551Z,39.86
2022-12-28T14:08:40.208Z,40.45
2022-12-28T14:11:09.337Z,43.19
2022-12-28T14:13:40.182Z,45.63
2022-12-28T14:16:09.921Z,47.65
2022-12-28T14:18:38.747Z,48.76
2022-12-28T14:21:07.297Z,50.55
2022-12-28T14:23:38.556Z,52.31
2022-12-28T14:26:20.671Z,54.23
2022-12-28T14:28:55.406Z,55.29
2022-12-28T14:31:31.060Z,54.75
2022-12-28T14:34:05.204Z,54.08
2022-12-28T14:36:49.032Z,54.72
2022-12-28T14:39:40.492Z,55.71
2022-12-28T14:42:23.942Z,57.41
2022-12-28T14:44:56.219Z,58.78
2022-12-28T14:47:45.131Z,60.37
2022-12-28T14:50:30.018Z,60.76
2022-12-28T14:53:27.601Z,62.96
2022-12-28T14:56:18.463Z,63.59
2022-12-28T14:59:00.913Z,64.50
2022-12-28T15:01:47.153Z,65.79
2022-12-28T15:04:41.282Z,66.36
2022-12-28T15:07:12.041Z,66.35
2022-12-28T15:09:39.729Z,67.07
2022-12-28T15:12:15.043Z,67.27
2022-12-28T15:14:43.639Z,67.75
2022-12-28T15:17:11.187Z,68.70
2022-12-28T15:19:39.317Z,69.42
2022-12-28T15:22:06.637Z,69.45
2022-12-28T15:24:35.539Z,70.12
2022-12-28T15:27:04.974Z,69.68
2022-12-28T15:30:03.718Z,70.43
2022-12-28T15:32:20.098Z,70.98
2022-12-28T15:34:49.129Z,71.67
2022-12-28T15:37:16.534Z,71.83
2022-12-28T15:39:44.193Z,72.15
2022-12-28T15:42:11.543Z,72.16
2022-12-28T15:44:39.969Z,72.43
2022-12-28T15:47:07.327Z,72.53
2022-12-28T15:49:34.985Z,72.94
2022-12-28T15:52:02.339Z,73.34
2022-12-28T15:54:29.964Z,73.77
2022-12-28T15:56:57.990Z,73.00
2022-12-28T15:59:26.723Z,73.57
2022-12-28T16:01:54.415Z,74.07
2022-12-28T16:04:22.238Z,74.10
2022-12-28T16:06:49.612Z,74.21
2022-12-28T16:09:17.221Z,73.80
2022-12-28T16:11:46.597Z,73.70
2022-12-28T16:14:17.826Z,73.93
2022-12-28T16:16:46.062Z,73.77
2022-12-28T16:19:15.894Z,73.81
2022-12-28T16:21:44.252Z,73.34
2022-12-28T16:24:12.230Z,73.43
2022-12-28T16:26:39.684Z,73.56
2022-12-28T16:29:07.393Z,73.61
2022-12-28T16:31:38.108Z,73.82
2022-12-28T16:34:16.011Z,73.62
2022-12-28T16:36:46.494Z,73.95
2022-12-28T16:39:17.445Z,74.22
2022-12-28T16:41:44.887Z,74.43
2022-12-28T16:44:17.676Z,74.06
2022-12-28T16:46:45.328Z,73.91
2022-12-28T16:49:13.567Z,74.90
2022-12-28T16:51:45.452Z,74.67
2022-12-28T16:54:23.477Z,74.50
2022-12-28T16:56:52.274Z,74.55
2022-12-28T16:59:27.197Z,75.17
2022-12-28T17:01:56.902Z,75.18
2022-12-28T17:04:24.976Z,75.36
2022-12-28T17:06:53.425Z,75.74
2022-12-28T17:09:21.343Z,75.60
2022-12-28T17:11:50.417Z,75.40
2022-12-28T17:14:36.239Z,75.96
2022-12-28T17:17:06.604Z,75.82
2022-12-28T17:19:34.767Z,76.03
2022-12-28T17:22:02.649Z,75.82
2022-12-28T17:24:30.412Z,75.83
2022-12-28T17:27:01.817Z,75.95
2022-12-28T17:29:35.081Z,76.21
2022-12-28T17:32:04.073Z,75.85
2022-12-28T17:34:32.210Z,76.00
2022-12-28T17:36:59.715Z,75.97
2022-12-28T17:39:27.472Z,76.35
2022-12-28T17:41:54.827Z,76.48
2022-12-28T17:44:22.526Z,76.39
2022-12-28T17:46:50.059Z,76.65
2022-12-28T17:49:17.855Z,76.62
2022-12-28T17:51:45.299Z,76.22
2022-12-28T17:54:16.436Z,76.79
2022-12-28T17:56:44.028Z,77.00
2022-12-28T17:59:17.021Z,77.18
2022-12-28T18:01:44.581Z,77.05
2022-12-28T18:04:12.572Z,76.89
2022-12-28T18:06:40.619Z,76.84
2022-12-28T18:09:08.805Z,76.95
2022-12-28T18:11:36.299Z,76.96
2022-12-28T18:14:04.051Z,77.43
2022-12-28T18:16:31.538Z,77.10
2022-12-28T18:18:59.120Z,77.16
2022-12-28T18:21:27.070Z,77.31
2022-12-28T18:23:54.833Z,77.04
2022-12-28T18:26:28.320Z,76.73
2022-12-28T18:28:57.170Z,76.68
2022-12-28T18:31:25.467Z,76.66
2022-12-28T18:33:54.771Z,76.74
2022-12-28T18:36:22.574Z,76.56
2022-12-28T18:38:50.791Z,76.15
2022-12-28T18:41:25.495Z,76.00
2022-12-28T18:43:56.991Z,75.95
2022-12-28T18:46:24.390Z,75.59
2022-12-28T18:48:52.101Z,75.20
2022-12-28T18:51:19.902Z,75.27
2022-12-28T18:53:47.553Z,75.08
2022-12-28T18:56:20.329Z,74.91
2022-12-28T18:58:56.378Z,74.92
2022-12-28T19:04:17.179Z,74.10
2022-12-28T19:06:44.968Z,73.86
2022-12-28T19:09:14.184Z,73.90
2022-12-28T19:11:42.369Z,73.51
2022-12-28T19:14:13.373Z,73.51
2022-12-28T19:16:41.366Z,73.41
2022-12-28T19:19:09.080Z,73.13
2022-12-28T19:21:39.508Z,72.34
2022-12-28T19:24:16.774Z,72.49
2022-12-28T19:26:45.970Z,72.48
2022-12-28T19:29:16.201Z,72.63
2022-12-28T19:31:43.827Z,72.84
2022-12-28T19:34:11.514Z,72.81
2022-12-28T19:36:39.010Z,72.32
2022-12-28T19:39:07.000Z,72.63
2022-12-28T19:41:35.695Z,72.56
2022-12-28T19:44:03.496Z,72.69
2022-12-28T19:46:31.579Z,72.69
2022-12-28T19:49:02.905Z,72.55
2022-12-28T19:51:32.493Z,72.50
2022-12-28T19:54:01.904Z,72.66
2022-12-28T19:56:29.865Z,72.44
2022-12-28T19:59:05.455Z,72.13
2022-12-28T20:01:35.082Z,72.43
2022-12-28T20:04:10.539Z,72.28
2022-12-28T20:06:43.197Z,72.48
2022-12-28T20:09:13.233Z,72.33
2022-12-28T20:11:41.156Z,71.63
2022-12-28T20:14:13.696Z,71.95
2022-12-28T20:16:42.298Z,72.07
2022-12-28T20:19:12.354Z,71.65
2022-12-28T20:21:42.014Z,71.36
2022-12-28T20:24:12.881Z,71.88
2022-12-28T20:26:40.612Z,71.42
2022-12-28T20:29:08.407Z,71.51
2022-12-28T20:31:35.911Z,71.38
2022-12-28T20:34:03.697Z,71.44
2022-12-28T20:36:33.952Z,71.50
2022-12-28T20:39:02.610Z,71.41
2022-12-28T20:41:51.157Z,71.59
2022-12-28T20:44:30.444Z,71.64
2022-12-28T20:46:59.996Z,71.59
2022-12-28T20:49:29.192Z,71.46
2022-12-28T20:51:56.641Z,71.26
2022-12-28T20:54:24.853Z,71.15
2022-12-28T20:56:55.411Z,70.84
2022-12-28T20:59:25.197Z,70.20
2022-12-28T21:01:53.635Z,70.17
2022-12-28T21:04:24.032Z,69.28
2022-12-28T21:06:52.636Z,69.28
2022-12-28T21:09:20.627Z,68.88
2022-12-28T21:11:47.952Z,68.48
2022-12-28T21:14:15.576Z,67.79
2022-12-28T21:16:43.104Z,67.94
2022-12-28T21:19:11.083Z,67.98
2022-12-28T21:21:39.346Z,67.80
2022-12-28T21:24:07.303Z,68.01
2022-12-28T21:26:34.588Z,67.90
2022-12-28T21:29:02.130Z,67.37
2022-12-28T21:31:29.452Z,67.40
2022-12-28T21:33:57.150Z,67.65
2022-12-28T21:36:24.558Z,67.86
2022-12-28T21:38:52.090Z,67.67
2022-12-28T21:41:41.004Z,67.91
2022-12-28T21:44:12.532Z,67.87
2022-12-28T21:46:41.095Z,67.49
2022-12-28T21:49:09.766Z,67.56
2022-12-28T21:51:40.725Z,67.56
2022-12-28T21:54:15.363Z,67.71
2022-12-28T21:56:45.968Z,67.38
2022-12-28T21:59:13.934Z,67.08
2022-12-28T22:02:01.336Z,67.12
2022-12-28T22:04:48.728Z,66.23
2022-12-28T22:07:19.723Z,66.11
2022-12-28T22:10:06.863Z,65.46
2022-12-28T22:12:34.572Z,65.74
2022-12-28T22:15:37.847Z,65.95
2022-12-28T22:21:13.327Z,65.56
2022-12-28T22:23:40.560Z,65.47
2022-12-28T22:26:08.259Z,65.33
2022-12-28T22:28:35.854Z,65.48
2022-12-28T22:31:08.035Z,66.20
2022-12-28T22:33:35.690Z,65.77
2022-12-28T22:36:16.443Z,65.27
2022-12-28T22:38:44.059Z,65.35
2022-12-28T22:41:11.860Z,65.82
2022-12-28T22:43:39.212Z,65.74
2022-12-28T22:46:12.040Z,65.60
2022-12-28T22:48:39.732Z,65.37
2022-12-28T22:51:11.618Z,65.20
2022-12-28T22:53:39.843Z,65.87
2022-12-28T22:56:12.630Z,65.56
2022-12-28T22:58:39.971Z,66.03
2022-12-28T23:01:17.903Z,65.99
2022-12-28T23:03:52.087Z,65.91
2022-12-28T23:06:20.508Z,66.35
2022-12-28T23:08:48.325Z,66.39
2022-12-28T23:11:36.727Z,66.78
2022-12-28T23:14:38.390Z,66.99
2022-12-28T23:17:14.032Z,67.35
2022-12-28T23:20:04.792Z,66.92
2022-12-28T23:22:53.861Z,66.92
2022-12-28T23:25:43.116Z,67.26
2022-12-28T23:28:14.513Z,67.40
2022-12-28T23:30:48.033Z,67.02
2022-12-28T23:33:17.725Z,67.51
2022-12-28T23:35:45.320Z,67.57
2022-12-28T23:38:12.942Z,66.80
2022-12-28T23:40:41.721Z,67.41
2022-12-28T23:43:09.703Z,67.56
2022-12-28T23:45:37.165Z,67.59
2022-12-28T23:48:05.807Z,68.81
2022-12-28T23:50:33.324Z,67.64
2022-12-28T23:53:00.929Z,67.97
2022-12-28T23:55:28.261Z,67.21
2022-12-28T23:57:55.887Z,66.51
